1882 Tropical Storm NOT_NAMED (1882266N23302)


IBTrACS version v04r00. Visit IBTrACS website for data access.
Please direct all questions to the IBTrACS Q and A forum

Storm track - Intensity - Wind Radii - Intensity Data - Source Data - All data

Summary Information

Storm ID 1882266N23302
Start Sep 22 12Z
Max Intensity 50 kt (Sep 24 18Z), 979 mb (Oct 1 12Z)
End Oct 1 12Z
ATCF IDs
Track status Best track data.

Storm track plot

Map of storm track

Intensity plots

Map of storm track

Radial wind information

No radial wind information for this storm


Position and Intensity Table

BASIN ISO_TIME_________ NATURE LAT LON MLC WIND MLC PRES
degrees north degrees east kts mb
NA 1882-09-22 12:00:00 TS 23.00 -58.00 25
NA 15:00:00 TS 23.20 -57.66 27
NA 18:00:00 TS 23.40 -57.30 30
NA 21:00:00 TS 23.60 -56.91 30
NA 1882-09-23 00:00:00 TS 23.80 -56.50 30
NA 03:00:00 TS 24.01 -56.09 32
NA 06:00:00 TS 24.20 -55.70 35
NA 09:00:00 TS 24.32 -55.22 37
NA 12:00:00 TS 24.50 -55.00 40
NA 15:00:00 TS 24.87 -55.37 42
NA 18:00:00 TS 25.30 -56.00 45
NA 21:00:00 TS 25.65 -56.44 45
NA 1882-09-24 00:00:00 TS 26.00 -57.00 45
NA 03:00:00 TS 26.40 -57.85 45
NA 06:00:00 TS 26.80 -58.80 45
NA 09:00:00 TS 27.16 -59.68 45
NA 12:00:00 TS 27.50 -60.50 45
NA 15:00:00 TS 27.81 -61.22 47
NA 18:00:00 TS 28.10 -61.90 50
NA 21:00:00 TS 28.40 -62.59 50
NA 1882-09-25 00:00:00 TS 28.70 -63.30 50
NA 03:00:00 TS 29.01 -64.05 50
NA 06:00:00 TS 29.30 -64.80 50
NA 09:00:00 TS 29.51 -65.61 50
NA 12:00:00 TS 29.80 -66.20 50
NA 15:00:00 TS 30.31 -66.31 50
NA 18:00:00 TS 30.90 -66.20 50
NA 21:00:00 TS 31.44 -66.15 50
NA 1882-09-26 00:00:00 TS 31.90 -66.10 50
NA 03:00:00 TS 32.24 -66.10 50
NA 06:00:00 TS 32.50 -66.10 50
NA 09:00:00 TS 32.74 -66.09 50
NA 12:00:00 TS 33.00 -66.00 50
NA 15:00:00 TS 33.34 -65.89 50
NA 18:00:00 TS 33.70 -65.50 50
NA 21:00:00 TS 34.01 -64.72 50
NA 1882-09-27 00:00:00 TS 34.30 -63.50 50
NA 03:00:00 TS 34.60 -61.86 50
NA 06:00:00 TS 34.90 -60.00 50
NA 09:00:00 TS 35.25 -58.16 50
NA 12:00:00 TS 35.50 -56.50 50
NA 15:00:00 TS 35.50 -55.25 50
NA 18:00:00 TS 35.40 -54.20 50
NA 21:00:00 TS 35.35 -53.10 50
NA 1882-09-28 00:00:00 TS 35.30 -52.00 50
NA 03:00:00 TS 35.24 -50.85 50
NA 06:00:00 TS 35.20 -49.70 50
NA 09:00:00 TS 35.20 -48.65 50
NA 12:00:00 TS 35.20 -47.50 50
NA 15:00:00 TS 35.15 -46.06 47
NA 18:00:00 TS 35.10 -44.50 45
NA 21:00:00 TS 35.10 -43.00 45
NA 1882-09-29 00:00:00 TS 35.10 -41.50 45
NA 03:00:00 TS 35.05 -40.00 45
NA 06:00:00 TS 35.00 -38.50 45
NA 09:00:00 TS 34.90 -36.92 45
NA 12:00:00 TS 35.00 -35.50 45
NA 15:00:00 TS 35.56 -34.43 45
NA 18:00:00 TS 36.30 -33.50 45
NA 21:00:00 TS 36.90 -32.50 45
NA 1882-09-30 00:00:00 TS 37.50 -31.50 45
NA 03:00:00 TS 38.15 -30.50 45
NA 06:00:00 TS 38.80 -29.50 45
NA 09:00:00 TS 39.28 -28.62 45
NA 12:00:00 ET 40.00 -27.50 45
NA 15:00:00 ET 41.29 -25.75 45
NA 18:00:00 ET 42.80 -23.70 45
NA 21:00:00 ET 44.15 -21.75 45
NA 1882-10-01 00:00:00 ET 45.50 -19.80 45
NA 03:00:00 ET 46.90 -17.84 45
NA 06:00:00 ET 48.30 -15.90 45
NA 09:00:00 ET 49.67 -13.97 45
NA 12:00:00 ET 51.00 -12.00 45 979

Source Information

Agency Information
USA
TOKYO
CMA
HKO
NEWDELHI
REUNION
BOM
NADI
WELLINGTON
DS824
TD9636
TD9635
NEUMANN
MLC

All available IBTrACS Data

SEASON BASIN SUBBASIN ISO_TIME_________ NATURE LAT LON DIST2LAND LANDFALL IFLAG USA SSHS MLC LAT MLC LON MLC CLASS MLC WIND MLC PRES STORM SPEED STORM DIR
Year degrees north degrees east km km 1 degrees north degrees east kts mb kts degrees
1882 NA NA 1882-09-22 12:00:00 TS 23.00 -58.00 942 942 _____________O -1 23.00 -58.00 TD 25 7 58
1882 NA NA 15:00:00 TS 23.20 -57.66 980 980 _____________P -1 23.20 -57.66 TD 27 8 58
1882 NA NA 18:00:00 TS 23.40 -57.30 1027 1027 _____________O -1 23.40 -57.30 TD 30 8 60
1882 NA NA 21:00:00 TS 23.60 -56.91 1073 1073 _____________P -1 23.60 -56.91 TD 30 8 61
1882 NA NA 1882-09-23 00:00:00 TS 23.80 -56.50 1119 1119 _____________O -1 23.80 -56.50 TD 30 9 61
1882 NA NA 03:00:00 TS 24.01 -56.09 1166 1166 _____________P -1 24.01 -56.09 TD 32 8 61
1882 NA NA 06:00:00 TS 24.20 -55.70 1212 1212 _____________O -1 24.20 -55.70 TS 35 9 69
1882 NA NA 09:00:00 TS 24.32 -55.22 1262 1262 _____________P -1 24.32 -55.22 TS 37 7 65
1882 NA NA 12:00:00 TS 24.50 -55.00 1290 1281 _____________O -1 24.50 -55.00 TS 40 6 345
1882 NA NA 15:00:00 TS 24.87 -55.37 1279 1254 _____________P -1 24.87 -55.37 TS 42 12 311
1882 NA NA 18:00:00 TS 25.30 -56.00 1254 1242 _____________O -1 25.30 -56.00 TS 45 12 309
1882 NA NA 21:00:00 TS 25.65 -56.44 1242 1226 _____________P -1 25.65 -56.44 TS 45 11 308
1882 NA NA 1882-09-24 00:00:00 TS 26.00 -57.00 1226 1199 _____________O -1 26.00 -57.00 TS 45 15 301
1882 NA NA 03:00:00 TS 26.40 -57.85 1200 1172 _____________P -1 26.40 -57.85 TS 45 18 296
1882 NA NA 06:00:00 TS 26.80 -58.80 1169 1150 _____________O -1 26.80 -58.80 TS 45 18 295
1882 NA NA 09:00:00 TS 27.16 -59.68 1154 1137 _____________P -1 27.16 -59.68 TS 45 17 295
1882 NA NA 12:00:00 TS 27.50 -60.50 1142 1136 _____________O -1 27.50 -60.50 TS 45 15 295
1882 NA NA 15:00:00 TS 27.81 -61.22 1142 1138 _____________P -1 27.81 -61.22 TS 47 14 296
1882 NA NA 18:00:00 TS 28.10 -61.90 1147 1144 _____________O -1 28.10 -61.90 TS 50 13 296
1882 NA NA 21:00:00 TS 28.40 -62.59 1158 1156 _____________P -1 28.40 -62.59 TS 50 14 296
1882 NA NA 1882-09-25 00:00:00 TS 28.70 -63.30 1174 1172 _____________O -1 28.70 -63.30 TS 50 14 295
1882 NA NA 03:00:00 TS 29.01 -64.05 1194 1194 _____________P -1 29.01 -64.05 TS 50 14 295
1882 NA NA 06:00:00 TS 29.30 -64.80 1204 1160 _____________O -1 29.30 -64.80 TS 50 15 290
1882 NA NA 09:00:00 TS 29.51 -65.61 1160 1094 _____________P -1 29.51 -65.61 TS 50 13 292
1882 NA NA 12:00:00 TS 29.80 -66.20 1094 1052 _____________O -1 29.80 -66.20 TS 50 10 323
1882 NA NA 15:00:00 TS 30.31 -66.31 1052 1019 _____________P -1 30.31 -66.31 TS 50 11 0
1882 NA NA 18:00:00 TS 30.90 -66.20 1019 989 _____________O -1 30.90 -66.20 TS 50 11 7
1882 NA NA 21:00:00 TS 31.44 -66.15 989 968 _____________P -1 31.44 -66.15 TS 50 10 5
1882 NA NA 1882-09-26 00:00:00 TS 31.90 -66.10 968 952 _____________O -1 31.90 -66.10 TS 50 8 3
1882 NA NA 03:00:00 TS 32.24 -66.10 952 937 _____________P -1 32.24 -66.10 TS 50 6 0
1882 NA NA 06:00:00 TS 32.50 -66.10 937 928 _____________O -1 32.50 -66.10 TS 50 5 2
1882 NA NA 09:00:00 TS 32.74 -66.09 928 919 _____________P -1 32.74 -66.09 TS 50 5 10
1882 NA NA 12:00:00 TS 33.00 -66.00 923 915 _____________O -1 33.00 -66.00 TS 50 6 15
1882 NA NA 15:00:00 TS 33.34 -65.89 920 916 _____________P -1 33.34 -65.89 TS 50 8 31
1882 NA NA 18:00:00 TS 33.70 -65.50 940 940 _____________O -1 33.70 -65.50 TS 50 12 56
1882 NA NA 21:00:00 TS 34.01 -64.72 974 968 _____________P -1 34.01 -64.72 TS 50 18 70
1882 NA NA 1882-09-27 00:00:00 TS 34.30 -63.50 1000 1000 _____________O -1 34.30 -63.50 TS 50 24 76
1882 NA NA 03:00:00 TS 34.60 -61.86 1032 1032 _____________P -1 34.60 -61.86 TS 50 29 78
1882 NA NA 06:00:00 TS 34.90 -60.00 1059 1059 _____________O -1 34.90 -60.00 TS 50 31 78
1882 NA NA 09:00:00 TS 35.25 -58.16 1095 1095 _____________P -1 35.25 -58.16 TS 50 29 78
1882 NA NA 12:00:00 TS 35.50 -56.50 1146 1146 _____________O -1 35.50 -56.50 TS 50 24 84
1882 NA NA 15:00:00 TS 35.50 -55.25 1188 1188 _____________P -1 35.50 -55.25 TS 50 19 93
1882 NA NA 18:00:00 TS 35.40 -54.20 1235 1235 _____________O -1 35.40 -54.20 TS 50 18 95
1882 NA NA 21:00:00 TS 35.35 -53.10 1257 1257 _____________P -1 35.35 -53.10 TS 50 18 93
1882 NA NA 1882-09-28 00:00:00 TS 35.30 -52.00 1261 1261 _____________O -1 35.30 -52.00 TS 50 18 93
1882 NA NA 03:00:00 TS 35.24 -50.85 1284 1284 _____________P -1 35.24 -50.85 TS 50 19 93
1882 NA NA 06:00:00 TS 35.20 -49.70 1301 1301 _____________O -1 35.20 -49.70 TS 50 18 91
1882 NA NA 09:00:00 TS 35.20 -48.65 1322 1322 _____________P -1 35.20 -48.65 TS 50 18 90
1882 NA NA 12:00:00 TS 35.20 -47.50 1354 1354 _____________O -1 35.20 -47.50 TS 50 21 91
1882 NA NA 15:00:00 TS 35.15 -46.06 1399 1399 _____________P -1 35.15 -46.06 TS 47 25 92
1882 NA NA 18:00:00 TS 35.10 -44.50 1470 1470 _____________O -1 35.10 -44.50 TS 45 25 91
1882 NA NA 21:00:00 TS 35.10 -43.00 1536 1536 _____________P -1 35.10 -43.00 TS 45 25 90
1882 NA NA 1882-09-29 00:00:00 TS 35.10 -41.50 1608 1608 _____________O -1 35.10 -41.50 TS 45 25 91
1882 NA NA 03:00:00 TS 35.05 -40.00 1696 1696 _____________P -1 35.05 -40.00 TS 45 25 92
1882 NA NA 06:00:00 TS 35.00 -38.50 1779 1779 _____________O -1 35.00 -38.50 TS 45 25 93
1882 NA NA 09:00:00 TS 34.90 -36.92 1881 1881 _____________P -1 34.90 -36.92 TS 45 25 90
1882 NA NA 12:00:00 TS 35.00 -35.50 1914 1847 _____________O -1 35.00 -35.50 TS 45 21 72
1882 NA NA 15:00:00 TS 35.56 -34.43 1843 1802 _____________P -1 35.56 -34.43 TS 45 21 51
1882 NA NA 18:00:00 TS 36.30 -33.50 1799 1752 _____________O -1 36.30 -33.50 TS 45 21 49
1882 NA NA 21:00:00 TS 36.90 -32.50 1749 1709 _____________P -1 36.90 -32.50 TS 45 20 53
1882 NA NA 1882-09-30 00:00:00 TS 37.50 -31.50 1707 1680 _____________O -1 37.50 -31.50 TS 45 20 52
1882 NA NA 03:00:00 TS 38.15 -30.50 1673 1654 _____________P -1 38.15 -30.50 TS 45 20 50
1882 NA NA 06:00:00 TS 38.80 -29.50 1655 1634 _____________O -1 38.80 -29.50 TS 45 19 52
1882 NA NA 09:00:00 TS 39.28 -28.62 1636 1553 _____________P -1 39.28 -28.62 TS 45 20 52
1882 NA NA 12:00:00 ET 40.00 -27.50 1542 1376 _____________O -1 40.00 -27.50 EX 45 30 48
1882 NA NA 15:00:00 ET 41.29 -25.75 1357 1176 _____________P -1 41.29 -25.75 EX 45 40 46
1882 NA NA 18:00:00 ET 42.80 -23.70 1167 1018 _____________O -1 42.80 -23.70 EX 45 41 46
1882 NA NA 21:00:00 ET 44.15 -21.75 1002 882 _____________P -1 44.15 -21.75 EX 45 39 46
1882 NA NA 1882-10-01 00:00:00 ET 45.50 -19.80 877 769 _____________O -1 45.50 -19.80 EX 45 39 45
1882 NA NA 03:00:00 ET 46.90 -17.84 756 559 _____________P -1 46.90 -17.84 EX 45 39 44
1882 NA NA 06:00:00 ET 48.30 -15.90 546 352 _____________O -1 48.30 -15.90 EX 45 38 43
1882 NA NA 09:00:00 ET 49.67 -13.97 339 152 _____________P -1 49.67 -13.97 EX 45 37 43
1882 NA NA 12:00:00 ET 51.00 -12.00 141 _____________O -1 51.00 -12.00 EX 45 979 36 43